Latest Weather Observations for Gatton

IDQ60901

Issued at 10:01 pm EST Monday 4 May 2015 (issued every 10 minutes, with the page automatically refreshed every 10 minutes)

About weather observations | Map of Brisbane area stations | Latest observations for Brisbane area | Other Formats
Station Details ID: 040082 Name: UNIVERSITY OF QUEENSLAND GATTON Lat: -27.54 Lon: 152.34 Height: 89.0 m
Data from the previous 72 hours. | See also: Recent months at Gatton
Date/Time
EST
Tmp

°C
App
Tmp
°C
Dew
Point
°C
Rel
Hum
%
Delta-T

°C
Wind Press
QNH
hPa
Press
MSL
hPa
Rain
since
9 am
mm
Dir
 
Spd
km/h
Gust
km/h
Spd
kts
Gust
kts
04/10:00pm 17.2 17.8 15.7 91 0.9 W 7 9 4 5 - - 0.2
04/09:30pm 17.3 18.0 16.2 93 0.7 WSW 7 11 4 6 - - 0.2
04/09:00pm 17.0 17.7 15.5 91 0.9 SSW 6 7 3 4 - - 0.2
04/08:30pm 17.2 19.0 15.5 90 1.0 CALM 0 2 0 1 - - 0.2
04/08:00pm 17.4 18.0 15.2 87 1.3 S 6 7 3 4 - - 0.2
04/07:30pm 18.0 19.4 15.4 85 1.5 N 2 9 1 5 - - 0.2
04/07:00pm 18.8 20.6 15.5 81 2.0 CALM 0 0 0 0 - - 0.2
04/06:30pm 20.1 21.1 16.3 79 2.3 N 6 9 3 5 - - 0.2
04/06:00pm 20.6 21.4 16.4 77 2.5 NNE 7 9 4 5 - - 0.2
04/05:30pm 22.4 22.7 16.0 67 3.9 NE 9 11 5 6 - - 0.2
04/05:00pm 23.4 24.1 16.0 63 4.5 NE 7 9 4 5 - - 0.2
04/04:30pm 25.4 25.6 15.7 55 5.9 NE 9 11 5 6 - - 0.2
04/04:00pm 26.1 26.3 15.8 53 6.3 ENE 9 13 5 7 - - 0.2
04/03:30pm 26.4 26.7 16.0 52 6.4 ENE 9 15 5 8 - - 0.2
04/03:00pm 26.5 26.7 15.8 51 6.6 NE 9 13 5 7 - - 0.2
04/02:30pm 26.6 27.2 15.9 51 6.6 E 7 11 4 6 - - 0.2
04/02:00pm 26.6 27.2 15.9 51 6.6 ENE 7 13 4 7 - - 0.2
04/01:30pm 26.0 25.9 16.0 54 6.1 NE 11 15 6 8 - - 0.2
04/01:00pm 25.9 26.5 15.9 54 6.1 SE 7 11 4 6 - - 0.2
04/12:30pm 25.8 26.7 16.1 55 6.0 NE 6 9 3 5 - - 0.2
04/12:00pm 24.9 25.5 15.2 54 5.9 N 6 11 3 6 - - 0.2
04/11:30am 24.6 25.3 15.5 57 5.5 N 6 11 3 6 - - 0.2
04/11:00am 23.4 24.4 16.4 64 4.3 N 6 9 3 5 - - 0.2
04/10:30am 23.0 24.4 16.5 67 4.0 N 4 9 2 5 - - 0.2
04/10:00am 21.7 22.7 16.4 72 3.2 NW 6 7 3 4 - - 0.2
04/09:30am 20.2 21.1 16.0 77 2.5 WNW 6 9 3 5 - - 0.0
04/09:00am 18.7 19.2 15.6 82 1.8 WNW 7 9 4 5 - - 0.0
04/08:30am 17.1 16.9 14.6 85 1.4 W 9 11 5 6 - - 0.0
04/08:00am 16.1 16.2 13.9 87 1.2 W 6 9 3 5 - - 0.0
04/07:30am 15.0 14.8 13.5 91 0.8 W 7 9 4 5 - - 0.0
04/07:00am 14.0 13.8 13.1 94 0.5 W 6 7 3 4 - - 0.0
04/06:30am 13.3 12.9 12.5 95 0.4 WNW 6 9 3 5 - - 0.0
04/06:00am 13.4 12.5 12.6 95 0.4 W 9 11 5 6 - - 0.0
04/05:30am 13.6 13.3 12.8 95 0.4 WSW 6 9 3 5 - - 0.0
04/05:00am 13.8 13.0 13.0 95 0.4 W 9 13 5 7 - - 0.0
04/04:30am 13.8 13.4 13.0 95 0.4 W 7 11 4 6 - - 0.0
04/04:00am 14.2 13.2 13.4 95 0.4 W 11 15 6 8 - - 0.0
04/03:30am 14.0 14.2 13.1 94 0.5 WSW 4 11 2 6 - - 0.0
04/03:00am 14.4 13.5 13.6 95 0.4 W 11 15 6 8 - - 0.0
04/02:30am 14.5 14.0 13.7 95 0.4 W 9 11 5 6 - - 0.0
04/02:00am 14.8 14.0 14.0 95 0.5 W 11 13 6 7 - - 0.0
04/01:30am 14.4 13.8 13.4 94 0.6 W 9 11 5 6 - - 0.0
04/01:00am 14.8 14.7 14.0 95 0.5 SW 7 9 4 5 - - 0.0
04/12:30am 14.8 14.8 13.7 93 0.6 SW 6 7 3 4 - - 0.0
04/12:00am 15.4 15.4 14.3 93 0.6 WSW 7 9 4 5 - - 0.0
 
Date/Time
EST
Tmp

°C
App
Tmp
°C
Dew
Point
°C
Rel
Hum
%
Delta-T

°C
Wind Press
QNH
hPa
Press
MSL
hPa
Rain
since
9 am
mm
Dir
 
Spd
km/h
Gust
km/h
Spd
kts
Gust
kts
03/11:30pm 15.9 15.8 14.9 94 0.6 W 9 11 5 6 - - 0.0
03/11:00pm 16.3 15.9 15.3 94 0.6 W 11 13 6 7 - - 0.0
03/10:30pm 16.3 16.2 15.0 92 0.8 W 9 11 5 6 - - 0.0
03/10:00pm 16.7 16.4 15.4 92 0.8 WSW 11 13 6 7 - - 0.0
03/09:30pm 17.1 17.2 15.6 91 0.9 W 9 13 5 7 - - 0.0
03/09:00pm 17.4 17.6 15.7 90 1.0 W 9 11 5 6 - - 0.0
03/08:30pm 17.7 18.0 16.0 90 1.0 WSW 9 11 5 6 - - 0.0
03/08:00pm 18.3 18.3 16.3 88 1.2 W 11 15 6 8 - - 0.0
03/07:30pm 17.6 18.3 15.6 88 1.2 W 6 11 3 6 - - 0.0
03/07:00pm 18.2 20.0 15.5 84 1.6 CALM 0 4 0 2 - - 0.0
03/06:30pm 18.8 19.5 16.0 84 1.7 WNW 7 11 4 6 - - 0.0
03/06:00pm 19.8 20.7 16.6 82 1.9 W 7 9 4 5 - - 0.0
03/05:30pm 19.8 21.3 16.6 82 1.9 N 4 11 2 6 - - 0.0
03/05:00pm 20.5 21.6 16.5 78 2.4 NE 6 7 3 4 - - 0.0
03/04:30pm 21.2 21.6 16.4 74 2.9 WNW 9 13 5 7 - - 0.0
03/04:00pm 22.2 22.3 16.5 70 3.5 SW 11 17 6 9 - - 0.0
03/03:30pm 21.6 21.9 16.1 71 3.3 SSW 9 13 5 7 - - 0.0
03/03:00pm 21.7 22.0 16.9 74 2.9 WSW 11 15 6 8 - - 0.0
03/02:30pm 21.5 22.1 16.7 74 2.9 WSW 9 13 5 7 - - 0.0
03/02:00pm 21.3 21.3 16.3 73 3.0 W 11 15 6 8 - - 0.0
03/01:30pm 21.1 21.0 15.9 72 3.1 W 11 17 6 9 - - 0.0
03/01:00pm 21.2 20.5 15.5 70 3.4 WNW 13 19 7 10 - - 0.0
03/12:30pm 21.4 20.9 15.9 71 3.3 W 13 20 7 11 - - 0.0
03/12:00pm 21.7 20.2 15.3 67 3.8 W 17 22 9 12 - - 0.0
03/11:30am 20.3 19.5 15.1 72 3.1 W 13 20 7 11 - - 0.0
03/11:00am 20.6 20.4 15.6 73 3.0 W 11 17 6 9 - - 0.0
03/10:30am 20.0 19.9 15.0 73 2.9 W 9 15 5 8 - - 0.0
03/10:00am 19.6 19.7 15.5 77 2.4 W 9 17 5 9 - - 0.0
03/09:30am 18.6 18.5 14.9 79 2.2 WNW 9 13 5 7 - - 0.0
03/09:00am 18.0 16.7 14.7 81 1.9 W 15 20 8 11 - - 0.0
03/08:30am 17.8 17.0 15.1 84 1.6 WNW 13 19 7 10 - - 0.0
03/08:00am 17.5 16.7 15.1 86 1.4 W 13 19 7 10 - - 0.0
03/07:30am 17.1 17.5 15.3 89 1.1 W 7 11 4 6 - - 0.0
03/07:00am 16.4 16.9 15.1 92 0.8 WNW 6 7 3 4 - - 0.0
03/06:30am 16.0 16.4 14.7 92 0.7 NW 6 9 3 5 - - 0.0
03/06:00am 16.3 16.7 14.8 91 0.9 W 6 9 3 5 - - 0.0
03/05:30am 16.4 16.2 14.6 89 1.0 W 9 15 5 8 - - 0.0
03/05:00am 17.0 16.0 14.6 86 1.4 W 13 17 7 9 - - 0.0
03/04:30am 17.0 16.4 14.5 85 1.4 WSW 11 17 6 9 - - 0.0
03/04:00am 17.1 16.8 14.4 84 1.6 W 9 13 5 7 - - 0.0
03/03:30am 17.0 15.9 14.3 84 1.5 W 13 17 7 9 - - 0.0
03/03:00am 17.2 15.3 14.3 83 1.7 W 17 24 9 13 - - 0.0
03/02:30am 17.3 16.2 14.4 83 1.7 W 13 17 7 9 - - 0.0
03/02:00am 17.4 15.9 14.3 82 1.8 W 15 20 8 11 - - 0.0
03/01:30am 17.1 16.9 14.6 85 1.4 WSW 9 13 5 7 - - 0.0
03/01:00am 17.5 16.8 14.4 82 1.8 W 11 17 6 9 - - 0.0
03/12:30am 16.9 16.6 14.4 85 1.4 WSW 9 11 5 6 - - 0.0
03/12:00am 16.8 16.8 14.1 84 1.5 W 7 11 4 6 - - 0.0
 
Date/Time
EST
Tmp

°C
App
Tmp
°C
Dew
Point
°C
Rel
Hum
%
Delta-T

°C
Wind Press
QNH
hPa
Press
MSL
hPa
Rain
since
9 am
mm
Dir
 
Spd
km/h
Gust
km/h
Spd
kts
Gust
kts
02/11:30pm 17.1 17.2 14.4 84 1.6 SW 7 9 4 5 - - 0.0
02/11:00pm 16.9 16.9 14.2 84 1.5 WSW 7 13 4 7 - - 0.0
02/10:30pm 16.9 16.5 14.0 83 1.7 W 9 11 5 6 - - 0.0
02/10:00pm 17.0 16.6 14.1 83 1.7 WSW 9 11 5 6 - - 0.0
02/09:30pm 16.9 16.1 14.0 83 1.7 W 11 15 6 8 - - 0.0
02/09:00pm 17.2 16.4 13.9 81 1.9 W 11 15 6 8 - - 0.0
02/08:30pm 16.9 16.8 13.8 82 1.8 W 7 9 4 5 - - 0.0
02/08:00pm 17.1 16.7 14.0 82 1.8 WSW 9 11 5 6 - - 0.0
02/07:30pm 17.4 17.5 14.5 83 1.7 W 7 9 4 5 - - 0.0
02/07:00pm 16.9 16.9 14.2 84 1.5 WNW 7 9 4 5 - - 0.0
02/06:30pm 16.9 18.1 13.8 82 1.8 CALM 0 6 0 3 - - 0.0
02/06:00pm 18.8 18.7 13.9 73 2.8 N 7 9 4 5 - - 0.0
02/05:30pm 20.6 20.5 13.3 63 4.2 WNW 6 7 3 4 - - 0.0
02/05:00pm 22.5 22.5 13.6 57 5.2 NW 6 9 3 5 - - 0.0
02/04:30pm 23.7 23.7 14.1 55 5.7 WNW 7 11 4 6 - - 0.0
02/04:00pm 23.9 23.8 14.0 54 5.8 NW 7 11 4 6 - - 0.0
02/03:30pm 23.7 23.2 13.8 53 5.8 NW 9 13 5 7 - - 0.0
02/03:00pm 23.6 23.5 13.8 54 5.7 W 7 11 4 6 - - 0.0
02/02:30pm 23.1 22.8 14.4 58 5.1 W 9 15 5 8 - - 0.0
02/02:00pm 22.5 22.7 14.1 59 4.9 S 6 11 3 6 - - 0.0
02/01:30pm 22.2 21.2 13.5 57 5.0 W 11 20 6 11 - - 0.0
02/01:00pm 22.0 20.4 13.9 60 4.7 WNW 15 22 8 12 - - 0.0
02/12:30pm 21.6 20.0 13.8 61 4.5 WNW 15 24 8 13 - - 0.0
02/12:00pm 21.1 19.8 13.8 63 4.2 W 13 19 7 10 - - 0.0
02/11:30am 20.9 19.4 14.3 66 3.9 W 15 20 8 11 - - 0.0
02/11:00am 20.5 19.5 14.6 69 3.5 W 13 17 7 9 - - 0.0
02/10:30am 20.1 19.8 14.5 70 3.3 NW 9 15 5 8 - - 0.0
02/10:00am 18.4 18.6 14.1 76 2.5 NW 6 7 3 4 - - 0.0
02/09:30am 18.4 18.6 14.7 79 2.2 ESE 7 11 4 6 - - 0.0
02/09:00am 18.4 18.7 14.9 80 2.0 E 7 9 4 5 - - 72.2
02/08:30am 17.2 17.6 14.8 86 1.4 N 6 9 3 5 - - 72.0
02/08:00am 17.0 17.9 15.0 88 1.2 NNE 4 7 2 4 - - 72.0
02/07:30am 15.6 17.0 14.5 93 0.6 CALM 0 0 0 0 - - 72.0
02/07:00am 15.0 16.4 14.4 96 0.3 CALM 0 0 0 0 - - 72.0
02/06:30am 14.6 15.9 14.0 96 0.3 CALM 0 0 0 0 - - 72.0
02/06:00am 14.5 15.7 13.9 96 0.3 CALM 0 0 0 0 - - 72.0
02/05:30am 14.6 14.6 14.1 97 0.3 SSE 7 9 4 5 - - 72.0
02/05:00am 14.3 13.4 13.7 96 0.3 ESE 11 13 6 7 - - 72.0
02/04:30am 13.9 13.5 13.1 95 0.4 SE 7 9 4 5 - - 72.0
02/04:00am 14.0 13.6 12.9 93 0.6 N 7 9 4 5 - - 72.0
02/03:30am 14.9 14.8 13.9 94 0.6 N 7 9 4 5 - - 72.0
02/03:00am 15.7 15.3 15.1 96 0.3 E 11 15 6 8 - - 72.0
02/02:30am 16.0 15.3 15.4 96 0.3 E 13 15 7 8 - - 72.0
02/02:00am 16.1 15.8 15.5 96 0.4 E 11 13 6 7 - - 72.0
02/01:30am 16.1 17.1 15.3 95 0.5 NE 4 9 2 5 - - 71.8
02/01:00am 16.0 17.3 15.2 95 0.5 W 2 7 1 4 - - 71.8
02/12:30am 16.0 16.4 15.2 95 0.5 W 7 9 4 5 - - 71.8
02/12:00am 16.0 15.6 15.2 95 0.5 W 11 15 6 8 - - 71.8
 
Date/Time
EST
Tmp

°C
App
Tmp
°C
Dew
Point
°C
Rel
Hum
%
Delta-T

°C
Wind Press
QNH
hPa
Press
MSL
hPa
Rain
since
9 am
mm
Dir
 
Spd
km/h
Gust
km/h
Spd
kts
Gust
kts
01/11:30pm 15.9 15.1 15.1 95 0.5 NW 13 19 7 10 - - 71.6
01/11:00pm 15.9 15.9 15.1 95 0.5 NW 9 15 5 8 - - 71.0
01/10:30pm 15.8 14.6 15.0 95 0.5 WNW 15 24 8 13 - - 70.4

Latest Capital City Observations: Canberra | Sydney | Melbourne | Brisbane | Adelaide | Perth | Hobart | Darwin

Other Formats:

Comma delimited format used in spreadsheet applications
http://www.bom.gov.au/fwo/IDQ60901/IDQ60901.94562.axf

JavaScript Object Notation format (JSON) in row-major order
http://www.bom.gov.au/fwo/IDQ60901/IDQ60901.94562.json